SBCG/CGR METAR and TAF weather

Enter ICAO airport designator
Station Type Date Time Source
SBCG METAR 2020/04/05 19:00 UTC NOAA

SBCG 051900Z 33011KT 9999 FEW045 SCT065 33/18 Q1012


Station Type Date Time Source
SBCG Decoded METAR 2020/04/05 19:00 UTC NOAA

Campo Grande Aeroporto , Brazil (SBCG) 20-28S 054-40W 567M
Apr 05, 2020 - 03:00 PM EDT / 2020.04.05 1900 UTC
Wind: from the NNW (330 degrees) at 13 MPH (11 KT):0
Visibility: greater than 7 mile(s):0
Sky conditions: partly cloudy
Temperature: 91 F (33 C)
Dew Point: 64 F (18 C)
Relative Humidity: 41%
Pressure (altimeter): 29.88 in. Hg (1012 hPa)
ob: SBCG 051900Z 33011KT 9999 FEW045 SCT065 33/18 Q1012
cycle: 19

Station Type Date Time Source
SBCG TAF 2020/04/05 18:59 UTC NOAA

TAF SBCG 051500Z 0518/0618 32006KT 9999 FEW030 TN21/0609Z TX31/0618Z
BECMG 0520/0522 06005KT
RMK PDZ

Example: see airport list